Weather at Parana Aeroclub Airport

Public forecast

Using degrees Celsius for public forecast. Weather courtesy of forecast.io.

Closest aviation weather report (METAR) to Parana Aeroclub Airport

Closest report is Rosario Islas Malvinas International Airport, 71.9 nm (133.1 km) SSW.

2024/06/19 06:00 (retrieved 28 minutes ago)

SAAR 190600Z VRB01KT 3000 BR FEW004 BKN049 12/12 Q1008

Closest aviation forecast (TAF) to Parana Aeroclub Airport

Closest forecast is Rosario Islas Malvinas International Airport, 71.9 nm (133.1 km) SSW.

2024/06/19 06:00 (retrieved 28 minutes ago)

TAF SAAR 190500Z 1906/2006 VRB03KT 0500 FG SCT002 TX19/198Z TN13/1911Z BECMG 1912/1914 18015KT 9999 SCT020 BKN040 BECMG 1916/1918 CAVOK